sensor_id;sensor_type;location;lat;lon;timestamp;P1;durP1;ratioP1;P2;durP2;ratioP2
35276;SDS011;21401;50.878;8.050;2022-12-18T00:01:05;34.27;;;16.07;;
35276;SDS011;21401;50.878;8.050;2022-12-18T00:03:39;36.97;;;17.13;;
35276;SDS011;21401;50.878;8.050;2022-12-18T00:06:06;35.38;;;16.75;;
35276;SDS011;21401;50.878;8.050;2022-12-18T00:08:34;32.50;;;15.67;;
35276;SDS011;21401;50.878;8.050;2022-12-18T00:11:04;33.45;;;14.57;;
35276;SDS011;21401;50.878;8.050;2022-12-18T00:13:31;31.65;;;15.73;;
35276;SDS011;21401;50.878;8.050;2022-12-18T00:16:02;33.00;;;14.63;;
35276;SDS011;21401;50.878;8.050;2022-12-18T00:18:29;33.20;;;14.57;;
35276;SDS011;21401;50.878;8.050;2022-12-18T00:20:58;38.07;;;15.40;;
35276;SDS011;21401;50.878;8.050;2022-12-18T00:23:25;30.83;;;14.73;;
35276;SDS011;21401;50.878;8.050;2022-12-18T00:25:53;33.33;;;17.30;;
35276;SDS011;21401;50.878;8.050;2022-12-18T00:28:20;38.70;;;16.05;;
35276;SDS011;21401;50.878;8.050;2022-12-18T00:30:46;29.20;;;16.20;;
35276;SDS011;21401;50.878;8.050;2022-12-18T00:33:16;30.55;;;13.50;;
35276;SDS011;21401;50.878;8.050;2022-12-18T00:35:42;27.30;;;12.73;;
35276;SDS011;21401;50.878;8.050;2022-12-18T00:38:09;32.87;;;15.37;;
35276;SDS011;21401;50.878;8.050;2022-12-18T00:40:35;38.27;;;17.10;;
35276;SDS011;21401;50.878;8.050;2022-12-18T00:43:02;34.33;;;17.47;;
35276;SDS011;21401;50.878;8.050;2022-12-18T00:45:29;41.60;;;18.93;;
35276;SDS011;21401;50.878;8.050;2022-12-18T00:47:56;47.13;;;18.45;;
35276;SDS011;21401;50.878;8.050;2022-12-18T00:50:25;30.33;;;16.57;;
35276;SDS011;21401;50.878;8.050;2022-12-18T00:52:52;33.03;;;17.23;;
35276;SDS011;21401;50.878;8.050;2022-12-18T00:55:18;35.10;;;16.93;;
35276;SDS011;21401;50.878;8.050;2022-12-18T00:57:44;32.87;;;15.53;;
35276;SDS011;21401;50.878;8.050;2022-12-18T01:00:12;28.63;;;13.70;;
35276;SDS011;21401;50.878;8.050;2022-12-18T01:02:40;29.63;;;13.53;;
35276;SDS011;21401;50.878;8.050;2022-12-18T01:05:09;29.07;;;13.13;;
35276;SDS011;21401;50.878;8.050;2022-12-18T01:07:40;25.70;;;12.97;;
35276;SDS011;21401;50.878;8.050;2022-12-18T01:10:07;25.93;;;13.33;;
35276;SDS011;21401;50.878;8.050;2022-12-18T01:12:34;30.17;;;14.67;;
35276;SDS011;21401;50.878;8.050;2022-12-18T01:15:04;27.07;;;13.60;;
35276;SDS011;21401;50.878;8.050;2022-12-18T01:17:31;25.80;;;11.70;;
35276;SDS011;21401;50.878;8.050;2022-12-18T01:19:58;28.23;;;13.63;;
35276;SDS011;21401;50.878;8.050;2022-12-18T01:22:24;23.60;;;12.00;;
35276;SDS011;21401;50.878;8.050;2022-12-18T01:24:53;29.30;;;12.93;;
35276;SDS011;21401;50.878;8.050;2022-12-18T01:27:22;24.20;;;11.87;;
35276;SDS011;21401;50.878;8.050;2022-12-18T01:29:48;29.03;;;10.90;;
35276;SDS011;21401;50.878;8.050;2022-12-18T01:32:15;26.20;;;11.63;;
35276;SDS011;21401;50.878;8.050;2022-12-18T01:34:41;28.93;;;12.93;;
35276;SDS011;21401;50.878;8.050;2022-12-18T01:37:07;25.37;;;12.80;;
35276;SDS011;21401;50.878;8.050;2022-12-18T01:39:34;25.13;;;11.10;;
35276;SDS011;21401;50.878;8.050;2022-12-18T01:42:02;24.30;;;11.17;;
35276;SDS011;21401;50.878;8.050;2022-12-18T01:47:21;20.43;;;10.20;;
35276;SDS011;21401;50.878;8.050;2022-12-18T01:49:57;19.83;;;9.67;;
35276;SDS011;21401;50.878;8.050;2022-12-18T01:52:28;27.23;;;9.50;;
35276;SDS011;21401;50.878;8.050;2022-12-18T01:54:57;16.43;;;8.73;;
35276;SDS011;21401;50.878;8.050;2022-12-18T01:57:25;20.43;;;9.13;;
35276;SDS011;21401;50.878;8.050;2022-12-18T01:59:52;22.23;;;10.80;;
35276;SDS011;21401;50.878;8.050;2022-12-18T02:02:22;20.00;;;10.33;;
35276;SDS011;21401;50.878;8.050;2022-12-18T02:04:51;21.17;;;11.10;;
35276;SDS011;21401;50.878;8.050;2022-12-18T02:13:21;27.23;;;11.07;;
35276;SDS011;21401;50.878;8.050;2022-12-18T02:18:47;24.30;;;9.37;;
35276;SDS011;21401;50.878;8.050;2022-12-18T02:24:07;20.70;;;9.87;;
35276;SDS011;21401;50.878;8.050;2022-12-18T02:26:45;21.05;;;10.32;;
35276;SDS011;21401;50.878;8.050;2022-12-18T02:29:20;16.57;;;9.27;;
35276;SDS011;21401;50.878;8.050;2022-12-18T02:34:31;16.13;;;8.20;;
35276;SDS011;21401;50.878;8.050;2022-12-18T02:37:02;22.00;;;9.23;;
35276;SDS011;21401;50.878;8.050;2022-12-18T02:39:32;21.00;;;9.43;;
35276;SDS011;21401;50.878;8.050;2022-12-18T02:41:59;22.87;;;9.57;;
35276;SDS011;21401;50.878;8.050;2022-12-18T02:44:32;21.80;;;10.53;;
35276;SDS011;21401;50.878;8.050;2022-12-18T02:47:08;20.97;;;9.43;;
35276;SDS011;21401;50.878;8.050;2022-12-18T02:49:54;22.93;;;9.10;;
35276;SDS011;21401;50.878;8.050;2022-12-18T02:55:19;25.80;;;10.00;;
35276;SDS011;21401;50.878;8.050;2022-12-18T03:00:59;27.23;;;13.20;;
35276;SDS011;21401;50.878;8.050;2022-12-18T03:03:39;26.33;;;11.40;;
35276;SDS011;21401;50.878;8.050;2022-12-18T03:06:13;22.47;;;10.53;;
35276;SDS011;21401;50.878;8.050;2022-12-18T03:08:44;20.05;;;10.23;;
35276;SDS011;21401;50.878;8.050;2022-12-18T03:11:15;19.23;;;10.83;;
35276;SDS011;21401;50.878;8.050;2022-12-18T03:14:01;18.60;;;9.37;;
35276;SDS011;21401;50.878;8.050;2022-12-18T03:16:29;20.83;;;10.40;;
35276;SDS011;21401;50.878;8.050;2022-12-18T03:19:00;26.60;;;12.63;;
35276;SDS011;21401;50.878;8.050;2022-12-18T03:21:29;18.80;;;9.90;;
35276;SDS011;21401;50.878;8.050;2022-12-18T03:24:00;20.87;;;10.67;;
35276;SDS011;21401;50.878;8.050;2022-12-18T03:26:30;23.47;;;10.70;;
35276;SDS011;21401;50.878;8.050;2022-12-18T03:28:58;24.27;;;10.57;;
35276;SDS011;21401;50.878;8.050;2022-12-18T03:31:28;23.63;;;9.95;;
35276;SDS011;21401;50.878;8.050;2022-12-18T03:33:58;23.33;;;10.27;;
35276;SDS011;21401;50.878;8.050;2022-12-18T03:36:26;21.27;;;10.57;;
35276;SDS011;21401;50.878;8.050;2022-12-18T03:38:53;27.17;;;11.80;;
35276;SDS011;21401;50.878;8.050;2022-12-18T03:42:07;24.07;;;11.03;;
35276;SDS011;21401;50.878;8.050;2022-12-18T03:44:15;29.60;;;11.57;;
35276;SDS011;21401;50.878;8.050;2022-12-18T03:49:47;31.60;;;13.57;;
35276;SDS011;21401;50.878;8.050;2022-12-18T03:55:05;20.93;;;9.23;;
35276;SDS011;21401;50.878;8.050;2022-12-18T03:57:33;28.80;;;11.53;;
35276;SDS011;21401;50.878;8.050;2022-12-18T04:00:03;28.07;;;11.97;;
35276;SDS011;21401;50.878;8.050;2022-12-18T04:02:35;23.30;;;10.93;;
35276;SDS011;21401;50.878;8.050;2022-12-18T04:05:04;25.87;;;10.83;;
35276;SDS011;21401;50.878;8.050;2022-12-18T04:07:32;29.07;;;11.27;;
35276;SDS011;21401;50.878;8.050;2022-12-18T04:10:02;27.60;;;11.57;;
35276;SDS011;21401;50.878;8.050;2022-12-18T04:12:32;24.80;;;10.50;;
35276;SDS011;21401;50.878;8.050;2022-12-18T04:14:58;30.43;;;12.23;;
35276;SDS011;21401;50.878;8.050;2022-12-18T04:17:24;33.00;;;13.10;;
35276;SDS011;21401;50.878;8.050;2022-12-18T04:19:54;23.30;;;11.43;;
35276;SDS011;21401;50.878;8.050;2022-12-18T04:22:20;32.13;;;12.70;;
35276;SDS011;21401;50.878;8.050;2022-12-18T04:24:46;33.60;;;12.53;;
35276;SDS011;21401;50.878;8.050;2022-12-18T04:27:13;26.30;;;11.73;;
35276;SDS011;21401;50.878;8.050;2022-12-18T04:29:39;39.13;;;14.00;;
35276;SDS011;21401;50.878;8.050;2022-12-18T04:32:05;26.93;;;12.63;;
35276;SDS011;21401;50.878;8.050;2022-12-18T04:34:32;24.83;;;12.13;;
35276;SDS011;21401;50.878;8.050;2022-12-18T04:36:58;27.93;;;13.00;;
35276;SDS011;21401;50.878;8.050;2022-12-18T04:39:25;30.43;;;12.37;;
35276;SDS011;21401;50.878;8.050;2022-12-18T04:41:51;25.87;;;11.67;;
35276;SDS011;21401;50.878;8.050;2022-12-18T04:44:17;28.77;;;11.70;;
35276;SDS011;21401;50.878;8.050;2022-12-18T04:46:44;29.92;;;13.27;;
35276;SDS011;21401;50.878;8.050;2022-12-18T04:49:10;25.80;;;10.57;;
35276;SDS011;21401;50.878;8.050;2022-12-18T04:51:37;26.38;;;12.43;;
35276;SDS011;21401;50.878;8.050;2022-12-18T04:54:03;28.90;;;12.17;;
35276;SDS011;21401;50.878;8.050;2022-12-18T04:56:30;27.17;;;12.80;;
35276;SDS011;21401;50.878;8.050;2022-12-18T04:58:57;31.38;;;12.98;;
35276;SDS011;21401;50.878;8.050;2022-12-18T05:01:23;34.23;;;14.17;;
35276;SDS011;21401;50.878;8.050;2022-12-18T05:03:50;33.75;;;14.18;;
35276;SDS011;21401;50.878;8.050;2022-12-18T05:06:16;32.25;;;13.50;;
35276;SDS011;21401;50.878;8.050;2022-12-18T05:08:46;34.88;;;14.05;;
35276;SDS011;21401;50.878;8.050;2022-12-18T05:11:13;27.83;;;14.05;;
35276;SDS011;21401;50.878;8.050;2022-12-18T05:13:42;31.60;;;14.27;;
35276;SDS011;21401;50.878;8.050;2022-12-18T05:16:09;28.30;;;13.18;;
35276;SDS011;21401;50.878;8.050;2022-12-18T05:18:35;30.77;;;13.65;;
35276;SDS011;21401;50.878;8.050;2022-12-18T05:21:09;33.38;;;15.48;;
35276;SDS011;21401;50.878;8.050;2022-12-18T05:23:36;30.55;;;13.68;;
35276;SDS011;21401;50.878;8.050;2022-12-18T05:26:03;24.75;;;12.88;;
35276;SDS011;21401;50.878;8.050;2022-12-18T05:28:31;29.38;;;13.20;;
35276;SDS011;21401;50.878;8.050;2022-12-18T05:30:59;30.88;;;13.60;;
35276;SDS011;21401;50.878;8.050;2022-12-18T05:33:28;26.58;;;14.23;;
35276;SDS011;21401;50.878;8.050;2022-12-18T05:35:57;26.33;;;14.10;;
35276;SDS011;21401;50.878;8.050;2022-12-18T05:38:29;27.05;;;14.18;;
35276;SDS011;21401;50.878;8.050;2022-12-18T05:40:58;34.95;;;14.60;;
35276;SDS011;21401;50.878;8.050;2022-12-18T05:43:25;27.35;;;13.02;;
35276;SDS011;21401;50.878;8.050;2022-12-18T05:45:52;29.95;;;13.15;;
35276;SDS011;21401;50.878;8.050;2022-12-18T05:48:19;28.00;;;13.82;;
35276;SDS011;21401;50.878;8.050;2022-12-18T05:50:46;28.13;;;12.70;;
35276;SDS011;21401;50.878;8.050;2022-12-18T05:53:14;31.35;;;13.27;;
35276;SDS011;21401;50.878;8.050;2022-12-18T05:55:43;27.70;;;14.32;;
35276;SDS011;21401;50.878;8.050;2022-12-18T05:58:11;27.58;;;12.70;;
35276;SDS011;21401;50.878;8.050;2022-12-18T06:00:39;30.60;;;14.68;;
35276;SDS011;21401;50.878;8.050;2022-12-18T06:03:09;28.20;;;12.73;;
35276;SDS011;21401;50.878;8.050;2022-12-18T06:05:37;29.58;;;12.85;;
35276;SDS011;21401;50.878;8.050;2022-12-18T06:08:07;26.88;;;13.00;;
35276;SDS011;21401;50.878;8.050;2022-12-18T06:10:35;27.77;;;12.90;;
35276;SDS011;21401;50.878;8.050;2022-12-18T06:13:02;25.10;;;12.57;;
35276;SDS011;21401;50.878;8.050;2022-12-18T06:15:29;24.50;;;12.00;;
35276;SDS011;21401;50.878;8.050;2022-12-18T06:17:55;25.52;;;12.48;;
35276;SDS011;21401;50.878;8.050;2022-12-18T06:20:22;21.98;;;12.95;;
35276;SDS011;21401;50.878;8.050;2022-12-18T06:22:48;26.00;;;12.27;;
35276;SDS011;21401;50.878;8.050;2022-12-18T06:25:14;26.40;;;12.25;;
35276;SDS011;21401;50.878;8.050;2022-12-18T06:27:41;25.73;;;12.25;;
35276;SDS011;21401;50.878;8.050;2022-12-18T06:30:07;28.73;;;13.05;;
35276;SDS011;21401;50.878;8.050;2022-12-18T06:32:34;23.20;;;10.95;;
35276;SDS011;21401;50.878;8.050;2022-12-18T06:35:01;27.73;;;12.38;;
35276;SDS011;21401;50.878;8.050;2022-12-18T06:37:27;28.40;;;12.38;;
35276;SDS011;21401;50.878;8.050;2022-12-18T06:39:53;28.88;;;12.82;;
35276;SDS011;21401;50.878;8.050;2022-12-18T06:42:21;26.00;;;13.15;;
35276;SDS011;21401;50.878;8.050;2022-12-18T06:44:47;24.40;;;12.13;;
35276;SDS011;21401;50.878;8.050;2022-12-18T06:47:14;29.02;;;13.77;;
35276;SDS011;21401;50.878;8.050;2022-12-18T06:49:41;25.17;;;12.40;;
35276;SDS011;21401;50.878;8.050;2022-12-18T06:52:07;31.50;;;13.55;;
35276;SDS011;21401;50.878;8.050;2022-12-18T06:54:36;25.35;;;12.55;;
35276;SDS011;21401;50.878;8.050;2022-12-18T06:57:02;31.30;;;13.25;;
35276;SDS011;21401;50.878;8.050;2022-12-18T06:59:31;29.10;;;13.68;;
35276;SDS011;21401;50.878;8.050;2022-12-18T07:01:58;29.92;;;12.88;;
35276;SDS011;21401;50.878;8.050;2022-12-18T07:04:30;23.98;;;11.68;;
35276;SDS011;21401;50.878;8.050;2022-12-18T07:06:57;27.17;;;12.18;;
35276;SDS011;21401;50.878;8.050;2022-12-18T07:09:23;23.27;;;11.70;;
35276;SDS011;21401;50.878;8.050;2022-12-18T07:11:50;26.05;;;12.75;;
35276;SDS011;21401;50.878;8.050;2022-12-18T07:14:16;22.67;;;11.00;;
35276;SDS011;21401;50.878;8.050;2022-12-18T07:16:42;29.40;;;11.98;;
35276;SDS011;21401;50.878;8.050;2022-12-18T07:19:09;26.00;;;11.70;;
35276;SDS011;21401;50.878;8.050;2022-12-18T07:21:35;22.17;;;10.93;;
35276;SDS011;21401;50.878;8.050;2022-12-18T07:24:02;23.23;;;9.88;;
35276;SDS011;21401;50.878;8.050;2022-12-18T07:26:28;24.50;;;11.45;;
35276;SDS011;21401;50.878;8.050;2022-12-18T07:28:57;19.55;;;9.38;;
35276;SDS011;21401;50.878;8.050;2022-12-18T07:31:24;25.35;;;11.15;;
35276;SDS011;21401;50.878;8.050;2022-12-18T07:33:51;20.13;;;10.02;;
35276;SDS011;21401;50.878;8.050;2022-12-18T07:36:24;22.27;;;11.27;;
35276;SDS011;21401;50.878;8.050;2022-12-18T07:41:17;24.02;;;11.20;;
35276;SDS011;21401;50.878;8.050;2022-12-18T07:43:44;22.27;;;11.05;;
35276;SDS011;21401;50.878;8.050;2022-12-18T07:46:11;28.63;;;12.05;;
35276;SDS011;21401;50.878;8.050;2022-12-18T07:48:41;21.35;;;10.25;;
35276;SDS011;21401;50.878;8.050;2022-12-18T07:51:08;28.08;;;12.75;;
35276;SDS011;21401;50.878;8.050;2022-12-18T07:53:37;23.08;;;10.50;;
35276;SDS011;21401;50.878;8.050;2022-12-18T07:56:07;19.48;;;9.55;;
35276;SDS011;21401;50.878;8.050;2022-12-18T07:58:37;21.00;;;9.43;;
35276;SDS011;21401;50.878;8.050;2022-12-18T08:01:04;17.75;;;8.30;;
35276;SDS011;21401;50.878;8.050;2022-12-18T08:03:31;24.75;;;11.20;;
35276;SDS011;21401;50.878;8.050;2022-12-18T08:05:58;21.70;;;9.55;;
35276;SDS011;21401;50.878;8.050;2022-12-18T08:08:25;21.20;;;10.65;;
35276;SDS011;21401;50.878;8.050;2022-12-18T08:10:52;18.10;;;10.20;;
35276;SDS011;21401;50.878;8.050;2022-12-18T08:13:18;24.60;;;10.57;;
35276;SDS011;21401;50.878;8.050;2022-12-18T08:15:45;24.70;;;10.00;;
35276;SDS011;21401;50.878;8.050;2022-12-18T08:18:11;22.33;;;11.45;;
35276;SDS011;21401;50.878;8.050;2022-12-18T08:20:44;25.42;;;11.50;;
35276;SDS011;21401;50.878;8.050;2022-12-18T08:23:12;22.38;;;10.27;;
35276;SDS011;21401;50.878;8.050;2022-12-18T08:25:39;25.48;;;10.38;;
35276;SDS011;21401;50.878;8.050;2022-12-18T08:28:05;19.58;;;10.10;;
35276;SDS011;21401;50.878;8.050;2022-12-18T08:30:34;20.88;;;9.98;;
35276;SDS011;21401;50.878;8.050;2022-12-18T08:33:01;25.80;;;11.40;;
35276;SDS011;21401;50.878;8.050;2022-12-18T08:35:27;22.02;;;10.50;;
35276;SDS011;21401;50.878;8.050;2022-12-18T08:37:59;19.13;;;9.52;;
35276;SDS011;21401;50.878;8.050;2022-12-18T08:40:28;21.33;;;9.48;;
35276;SDS011;21401;50.878;8.050;2022-12-18T08:42:57;22.05;;;9.45;;
35276;SDS011;21401;50.878;8.050;2022-12-18T08:45:41;21.20;;;10.25;;
35276;SDS011;21401;50.878;8.050;2022-12-18T08:48:07;29.65;;;11.70;;
35276;SDS011;21401;50.878;8.050;2022-12-18T08:50:40;22.23;;;10.73;;
35276;SDS011;21401;50.878;8.050;2022-12-18T08:53:06;23.60;;;11.02;;
35276;SDS011;21401;50.878;8.050;2022-12-18T08:55:38;18.65;;;9.55;;
35276;SDS011;21401;50.878;8.050;2022-12-18T08:58:04;20.90;;;9.68;;
35276;SDS011;21401;50.878;8.050;2022-12-18T09:00:36;22.42;;;11.45;;
35276;SDS011;21401;50.878;8.050;2022-12-18T09:03:03;25.00;;;9.50;;
35276;SDS011;21401;50.878;8.050;2022-12-18T09:05:37;18.48;;;9.38;;
35276;SDS011;21401;50.878;8.050;2022-12-18T09:11:15;19.85;;;9.48;;
35276;SDS011;21401;50.878;8.050;2022-12-18T09:13:51;21.48;;;11.35;;
35276;SDS011;21401;50.878;8.050;2022-12-18T09:16:19;18.92;;;10.23;;
35276;SDS011;21401;50.878;8.050;2022-12-18T09:18:46;22.90;;;10.25;;
35276;SDS011;21401;50.878;8.050;2022-12-18T09:21:15;18.45;;;8.90;;
35276;SDS011;21401;50.878;8.050;2022-12-18T09:24:27;15.45;;;8.27;;
35276;SDS011;21401;50.878;8.050;2022-12-18T09:27:38;23.08;;;10.05;;
35276;SDS011;21401;50.878;8.050;2022-12-18T09:33:29;18.20;;;8.70;;
35276;SDS011;21401;50.878;8.050;2022-12-18T09:36:32;18.80;;;9.05;;
35276;SDS011;21401;50.878;8.050;2022-12-18T09:39:19;17.63;;;8.60;;
35276;SDS011;21401;50.878;8.050;2022-12-18T09:42:30;18.80;;;9.07;;
35276;SDS011;21401;50.878;8.050;2022-12-18T09:45:37;21.08;;;10.23;;
35276;SDS011;21401;50.878;8.050;2022-12-18T09:48:21;22.02;;;10.30;;
35276;SDS011;21401;50.878;8.050;2022-12-18T09:51:39;21.02;;;9.02;;
35276;SDS011;21401;50.878;8.050;2022-12-18T09:54:38;17.00;;;8.88;;
35276;SDS011;21401;50.878;8.050;2022-12-18T09:57:35;15.30;;;8.63;;
35276;SDS011;21401;50.878;8.050;2022-12-18T10:00:44;18.70;;;9.10;;
35276;SDS011;21401;50.878;8.050;2022-12-18T10:03:26;20.67;;;9.65;;
35276;SDS011;21401;50.878;8.050;2022-12-18T10:13:15;17.83;;;9.20;;
35276;SDS011;21401;50.878;8.050;2022-12-18T10:42:45;15.05;;;8.02;;
35276;SDS011;21401;50.878;8.050;2022-12-18T10:52:52;15.88;;;8.00;;
35276;SDS011;21401;50.878;8.050;2022-12-18T11:35:59;18.13;;;10.38;;
35276;SDS011;21401;50.878;8.050;2022-12-18T11:38:38;23.45;;;10.00;;
35276;SDS011;21401;50.878;8.050;2022-12-18T13:49:20;37.20;;;16.67;;
35276;SDS011;21401;50.878;8.050;2022-12-18T13:51:51;36.97;;;17.10;;
35276;SDS011;21401;50.878;8.050;2022-12-18T13:54:42;37.92;;;16.98;;
35276;SDS011;21401;50.878;8.050;2022-12-18T13:57:25;32.45;;;15.70;;
35276;SDS011;21401;50.878;8.050;2022-12-18T14:02:53;44.20;;;19.42;;
35276;SDS011;21401;50.878;8.050;2022-12-18T14:07:54;33.30;;;17.55;;
35276;SDS011;21401;50.878;8.050;2022-12-18T14:10:26;37.00;;;17.77;;
35276;SDS011;21401;50.878;8.050;2022-12-18T14:12:56;41.35;;;19.30;;
35276;SDS011;21401;50.878;8.050;2022-12-18T14:20:29;38.80;;;19.42;;
35276;SDS011;21401;50.878;8.050;2022-12-18T14:22:58;37.67;;;18.02;;
35276;SDS011;21401;50.878;8.050;2022-12-18T14:25:29;37.95;;;18.05;;
35276;SDS011;21401;50.878;8.050;2022-12-18T14:30:40;35.33;;;18.20;;
35276;SDS011;21401;50.878;8.050;2022-12-18T14:35:42;42.85;;;20.45;;
35276;SDS011;21401;50.878;8.050;2022-12-18T14:38:20;37.92;;;18.27;;
35276;SDS011;21401;50.878;8.050;2022-12-18T14:41:12;39.50;;;19.65;;
35276;SDS011;21401;50.878;8.050;2022-12-18T14:43:39;35.47;;;16.63;;
35276;SDS011;21401;50.878;8.050;2022-12-18T14:46:25;39.90;;;18.80;;
35276;SDS011;21401;50.878;8.050;2022-12-18T14:48:57;45.00;;;20.05;;
35276;SDS011;21401;50.878;8.050;2022-12-18T14:51:31;42.33;;;19.88;;
35276;SDS011;21401;50.878;8.050;2022-12-18T14:53:59;45.93;;;22.20;;
35276;SDS011;21401;50.878;8.050;2022-12-18T14:56:34;47.40;;;21.95;;
35276;SDS011;21401;50.878;8.050;2022-12-18T14:59:16;41.78;;;19.55;;
35276;SDS011;21401;50.878;8.050;2022-12-18T15:04:38;42.42;;;20.15;;
35276;SDS011;21401;50.878;8.050;2022-12-18T15:07:14;40.38;;;19.50;;
35276;SDS011;21401;50.878;8.050;2022-12-18T15:12:35;47.03;;;21.00;;
35276;SDS011;21401;50.878;8.050;2022-12-18T15:18:15;42.10;;;21.38;;
35276;SDS011;21401;50.878;8.050;2022-12-18T15:23:49;45.83;;;22.73;;
35276;SDS011;21401;50.878;8.050;2022-12-18T15:27:37;48.83;;;20.80;;
35276;SDS011;21401;50.878;8.050;2022-12-18T15:33:30;45.10;;;22.55;;
35276;SDS011;21401;50.878;8.050;2022-12-18T15:40:18;50.00;;;21.30;;
35276;SDS011;21401;50.878;8.050;2022-12-18T15:42:56;51.67;;;22.60;;
35276;SDS011;21401;50.878;8.050;2022-12-18T15:45:48;46.88;;;22.40;;
35276;SDS011;21401;50.878;8.050;2022-12-18T15:48:23;54.55;;;22.85;;
35276;SDS011;21401;50.878;8.050;2022-12-18T15:51:39;56.58;;;23.70;;
35276;SDS011;21401;50.878;8.050;2022-12-18T16:01:33;50.83;;;22.98;;
35276;SDS011;21401;50.878;8.050;2022-12-18T16:04:16;58.45;;;23.55;;
35276;SDS011;21401;50.878;8.050;2022-12-18T16:06:51;52.03;;;23.48;;
35276;SDS011;21401;50.878;8.050;2022-12-18T16:10:21;50.88;;;22.58;;
35276;SDS011;21401;50.878;8.050;2022-12-18T16:17:08;52.65;;;23.23;;
35276;SDS011;21401;50.878;8.050;2022-12-18T16:19:36;61.67;;;27.35;;
35276;SDS011;21401;50.878;8.050;2022-12-18T16:29:13;62.30;;;28.00;;
35276;SDS011;21401;50.878;8.050;2022-12-18T16:32:42;57.10;;;27.15;;
35276;SDS011;21401;50.878;8.050;2022-12-18T16:35:23;50.15;;;23.38;;
35276;SDS011;21401;50.878;8.050;2022-12-18T16:38:46;44.83;;;20.52;;
35276;SDS011;21401;50.878;8.050;2022-12-18T16:41:24;50.80;;;22.80;;
35276;SDS011;21401;50.878;8.050;2022-12-18T16:44:19;61.92;;;24.92;;
35276;SDS011;21401;50.878;8.050;2022-12-18T16:47:33;62.10;;;25.25;;
35276;SDS011;21401;50.878;8.050;2022-12-18T16:50:05;67.20;;;28.08;;
35276;SDS011;21401;50.878;8.050;2022-12-18T16:52:37;65.82;;;27.88;;
35276;SDS011;21401;50.878;8.050;2022-12-18T16:55:49;62.63;;;27.40;;
35276;SDS011;21401;50.878;8.050;2022-12-18T16:58:55;58.55;;;25.17;;
35276;SDS011;21401;50.878;8.050;2022-12-18T17:05:40;64.38;;;26.73;;
35276;SDS011;21401;50.878;8.050;2022-12-18T17:11:23;64.20;;;27.35;;
35276;SDS011;21401;50.878;8.050;2022-12-18T17:13:54;62.30;;;27.05;;
35276;SDS011;21401;50.878;8.050;2022-12-18T17:16:20;70.43;;;28.00;;
35276;SDS011;21401;50.878;8.050;2022-12-18T17:18:47;58.78;;;26.55;;
35276;SDS011;21401;50.878;8.050;2022-12-18T17:21:13;67.68;;;25.08;;
35276;SDS011;21401;50.878;8.050;2022-12-18T17:23:39;65.70;;;27.38;;
35276;SDS011;21401;50.878;8.050;2022-12-18T17:26:08;68.78;;;28.75;;
35276;SDS011;21401;50.878;8.050;2022-12-18T17:28:35;70.70;;;27.13;;
35276;SDS011;21401;50.878;8.050;2022-12-18T17:31:09;61.42;;;27.58;;
35276;SDS011;21401;50.878;8.050;2022-12-18T17:34:03;62.85;;;24.30;;
35276;SDS011;21401;50.878;8.050;2022-12-18T17:36:31;62.05;;;25.67;;
35276;SDS011;21401;50.878;8.050;2022-12-18T17:38:58;63.63;;;26.58;;
35276;SDS011;21401;50.878;8.050;2022-12-18T17:41:25;61.95;;;26.50;;
35276;SDS011;21401;50.878;8.050;2022-12-18T17:43:58;55.13;;;24.38;;
35276;SDS011;21401;50.878;8.050;2022-12-18T17:46:27;54.40;;;21.13;;
35276;SDS011;21401;50.878;8.050;2022-12-18T17:48:54;63.67;;;27.48;;
35276;SDS011;21401;50.878;8.050;2022-12-18T17:51:25;52.83;;;24.00;;
35276;SDS011;21401;50.878;8.050;2022-12-18T17:53:52;56.10;;;23.48;;
35276;SDS011;21401;50.878;8.050;2022-12-18T17:56:19;52.70;;;23.13;;
35276;SDS011;21401;50.878;8.050;2022-12-18T17:58:45;61.88;;;24.52;;
35276;SDS011;21401;50.878;8.050;2022-12-18T18:01:12;53.28;;;24.48;;
35276;SDS011;21401;50.878;8.050;2022-12-18T18:03:39;60.17;;;25.90;;
35276;SDS011;21401;50.878;8.050;2022-12-18T18:06:06;53.10;;;23.73;;
35276;SDS011;21401;50.878;8.050;2022-12-18T18:08:34;55.20;;;23.33;;
35276;SDS011;21401;50.878;8.050;2022-12-18T18:11:05;61.08;;;26.65;;
35276;SDS011;21401;50.878;8.050;2022-12-18T18:13:50;57.97;;;23.17;;
35276;SDS011;21401;50.878;8.050;2022-12-18T18:16:24;70.95;;;25.83;;
35276;SDS011;21401;50.878;8.050;2022-12-18T18:18:51;60.67;;;26.92;;
35276;SDS011;21401;50.878;8.050;2022-12-18T18:21:16;60.08;;;25.25;;
35276;SDS011;21401;50.878;8.050;2022-12-18T18:23:42;61.80;;;24.10;;
35276;SDS011;21401;50.878;8.050;2022-12-18T18:26:08;65.15;;;25.02;;
35276;SDS011;21401;50.878;8.050;2022-12-18T18:28:36;57.42;;;21.90;;
35276;SDS011;21401;50.878;8.050;2022-12-18T18:31:05;68.30;;;27.52;;
35276;SDS011;21401;50.878;8.050;2022-12-18T18:33:32;61.85;;;27.63;;
35276;SDS011;21401;50.878;8.050;2022-12-18T18:35:58;83.03;;;33.53;;
35276;SDS011;21401;50.878;8.050;2022-12-18T18:38:26;61.38;;;25.52;;
35276;SDS011;21401;50.878;8.050;2022-12-18T18:40:59;84.38;;;32.85;;
35276;SDS011;21401;50.878;8.050;2022-12-18T18:43:28;56.53;;;24.17;;
35276;SDS011;21401;50.878;8.050;2022-12-18T18:45:57;63.53;;;26.52;;
35276;SDS011;21401;50.878;8.050;2022-12-18T18:48:24;66.40;;;27.90;;
35276;SDS011;21401;50.878;8.050;2022-12-18T18:50:54;64.55;;;25.85;;
35276;SDS011;21401;50.878;8.050;2022-12-18T18:53:29;61.20;;;24.13;;
35276;SDS011;21401;50.878;8.050;2022-12-18T18:55:59;57.78;;;26.60;;
35276;SDS011;21401;50.878;8.050;2022-12-18T18:58:25;64.05;;;26.00;;
35276;SDS011;21401;50.878;8.050;2022-12-18T19:00:54;58.42;;;24.75;;
35276;SDS011;21401;50.878;8.050;2022-12-18T19:03:24;53.30;;;24.83;;
35276;SDS011;21401;50.878;8.050;2022-12-18T19:05:56;54.67;;;25.23;;
35276;SDS011;21401;50.878;8.050;2022-12-18T19:08:24;61.22;;;26.23;;
35276;SDS011;21401;50.878;8.050;2022-12-18T19:10:55;53.17;;;25.17;;
35276;SDS011;21401;50.878;8.050;2022-12-18T19:13:23;56.60;;;23.27;;
35276;SDS011;21401;50.878;8.050;2022-12-18T19:15:54;53.72;;;21.77;;
35276;SDS011;21401;50.878;8.050;2022-12-18T19:18:26;55.15;;;23.67;;
35276;SDS011;21401;50.878;8.050;2022-12-18T19:20:58;66.57;;;26.50;;
35276;SDS011;21401;50.878;8.050;2022-12-18T19:23:30;62.20;;;26.10;;
35276;SDS011;21401;50.878;8.050;2022-12-18T19:26:03;60.08;;;25.95;;
35276;SDS011;21401;50.878;8.050;2022-12-18T19:28:32;46.33;;;21.25;;
35276;SDS011;21401;50.878;8.050;2022-12-18T19:31:00;57.22;;;23.15;;
35276;SDS011;21401;50.878;8.050;2022-12-18T19:33:28;57.85;;;23.88;;
35276;SDS011;21401;50.878;8.050;2022-12-18T19:35:56;54.38;;;23.85;;
35276;SDS011;21401;50.878;8.050;2022-12-18T19:38:22;54.05;;;23.25;;
35276;SDS011;21401;50.878;8.050;2022-12-18T19:40:48;49.17;;;21.50;;
35276;SDS011;21401;50.878;8.050;2022-12-18T19:43:14;49.72;;;23.60;;
35276;SDS011;21401;50.878;8.050;2022-12-18T19:45:40;56.97;;;24.88;;
35276;SDS011;21401;50.878;8.050;2022-12-18T19:48:06;52.20;;;24.30;;
35276;SDS011;21401;50.878;8.050;2022-12-18T19:50:32;55.97;;;22.42;;
35276;SDS011;21401;50.878;8.050;2022-12-18T19:52:58;52.45;;;22.83;;
35276;SDS011;21401;50.878;8.050;2022-12-18T19:55:26;52.22;;;23.17;;
35276;SDS011;21401;50.878;8.050;2022-12-18T19:57:52;49.88;;;22.10;;
35276;SDS011;21401;50.878;8.050;2022-12-18T20:00:17;54.85;;;23.73;;